VPCZW SBSG-SBSV
Flight info
| Callsign | VPCZW |
|---|---|
| Flight time | 1h 17m |
| Altitude | 40000 |
| Route | SIKEL UZ21 IREKI UZ30 ILPIX |
| Aircraft | B737/M-SDE2E3FGHIRWXY/LB1 |
Departure
| Time | 2026-05-09 00:51 |
|---|---|
| Airport | Rio Grande do Norte/São Gonçalo do Amarante–Governador Aluízio Alves International Airport (SBSG) |
Arrival
| Time | 2026-05-09 02:08 |
|---|---|
| Airport | Deputado Luiz Eduardo Magalhães International Airport (SBSV) |
| Time | Latitude | Longitude | Altitude | Speed | Heading |
|---|---|---|---|---|---|
| 2026-05-09 00:31 | -5.76518 | -35.36809 | 288 ft | 0 kts | 9° |
| 2026-05-09 00:41 | -5.76550 | -35.36811 | 288 ft | 2 kts | 356° |
| 2026-05-09 00:41 | -5.76566 | -35.36809 | 288 ft | 2 kts | 345° |
| 2026-05-09 00:41 | -5.76581 | -35.36804 | 288 ft | 2 kts | 329° |
| 2026-05-09 00:41 | -5.76594 | -35.36793 | 291 ft | 2 kts | 309° |
| 2026-05-09 00:42 | -5.76603 | -35.36780 | 288 ft | 2 kts | 291° |
| 2026-05-09 00:42 | -5.76607 | -35.36766 | 288 ft | 1 kts | 282° |
| 2026-05-09 00:42 | -5.76608 | -35.36762 | 288 ft | 0 kts | 281° |
| 2026-05-09 00:45 | -5.76604 | -35.36781 | 288 ft | 5 kts | 281° |
| 2026-05-09 00:45 | -5.76607 | -35.36821 | 290 ft | 7 kts | 231° |
| 2026-05-09 00:45 | -5.76681 | -35.36845 | 299 ft | 13 kts | 187° |
| 2026-05-09 00:45 | -5.76758 | -35.36866 | 299 ft | 11 kts | 223° |
| 2026-05-09 00:46 | -5.76763 | -35.36938 | 299 ft | 11 kts | 277° |
| 2026-05-09 00:46 | -5.76753 | -35.37010 | 302 ft | 10 kts | 277° |
| 2026-05-09 00:46 | -5.76744 | -35.37080 | 299 ft | 10 kts | 278° |
| 2026-05-09 00:46 | -5.76729 | -35.37151 | 298 ft | 14 kts | 283° |
| 2026-05-09 00:47 | -5.76710 | -35.37261 | 299 ft | 17 kts | 278° |
| 2026-05-09 00:47 | -5.76692 | -35.37379 | 293 ft | 17 kts | 279° |
| 2026-05-09 00:47 | -5.76672 | -35.37492 | 292 ft | 16 kts | 279° |
| 2026-05-09 00:47 | -5.76656 | -35.37602 | 294 ft | 16 kts | 278° |
| 2026-05-09 00:48 | -5.76637 | -35.37707 | 297 ft | 15 kts | 280° |
| 2026-05-09 00:48 | -5.76621 | -35.37807 | 294 ft | 14 kts | 279° |
| 2026-05-09 00:48 | -5.76607 | -35.37904 | 298 ft | 14 kts | 272° |
| 2026-05-09 00:48 | -5.76637 | -35.37959 | 300 ft | 9 kts | 206° |
| 2026-05-09 00:49 | -5.76696 | -35.37972 | 297 ft | 9 kts | 192° |
| 2026-05-09 00:49 | -5.76755 | -35.37975 | 299 ft | 8 kts | 181° |
| 2026-05-09 00:49 | -5.76780 | -35.37973 | 298 ft | 1 kts | 143° |
| 2026-05-09 00:49 | -5.76777 | -35.37957 | 298 ft | 4 kts | 68° |
| 2026-05-09 00:50 | -5.76776 | -35.37937 | 298 ft | 1 kts | 100° |
| 2026-05-09 00:50 | -5.76777 | -35.37931 | 298 ft | 1 kts | 100° |
| 2026-05-09 00:50 | -5.76778 | -35.37925 | 297 ft | 0 kts | 100° |
| 2026-05-09 00:50 | -5.76787 | -35.37872 | 299 ft | 42 kts | 99° |
| 2026-05-09 00:51 | -5.76894 | -35.37198 | 297 ft | 149 kts | 99° |
| 2026-05-09 00:51 | -5.77092 | -35.35927 | 745 ft | 208 kts | 100° |
| 2026-05-09 00:51 | -5.77350 | -35.34465 | 2057 ft | 208 kts | 106° |
| 2026-05-09 00:51 | -5.77803 | -35.33074 | 3278 ft | 224 kts | 124° |
| 2026-05-09 00:52 | -5.79052 | -35.31981 | 4033 ft | 248 kts | 148° |
| 2026-05-09 00:52 | -5.80571 | -35.31086 | 5143 ft | 257 kts | 149° |
| 2026-05-09 00:52 | -5.82107 | -35.30184 | 6309 ft | 261 kts | 148° |
| 2026-05-09 00:52 | -5.83708 | -35.29226 | 7409 ft | 268 kts | 147° |
| 2026-05-09 00:53 | -5.85300 | -35.28260 | 8449 ft | 275 kts | 147° |
| 2026-05-09 00:53 | -5.86951 | -35.27251 | 9506 ft | 281 kts | 147° |
| 2026-05-09 00:53 | -5.88641 | -35.26215 | 10463 ft | 290 kts | 146° |
| 2026-05-09 00:53 | -5.90564 | -35.25331 | 10819 ft | 325 kts | 166° |
| 2026-05-09 00:54 | -5.92892 | -35.25406 | 11422 ft | 346 kts | 191° |
| 2026-05-09 00:54 | -5.95232 | -35.26075 | 12323 ft | 352 kts | 195° |
| 2026-05-09 00:54 | -5.97579 | -35.26832 | 13282 ft | 357 kts | 196° |
| 2026-05-09 00:54 | -5.99962 | -35.27604 | 14162 ft | 362 kts | 195° |
| 2026-05-09 00:55 | -6.02374 | -35.28362 | 14962 ft | 367 kts | 195° |
| 2026-05-09 00:55 | -6.04840 | -35.29104 | 15743 ft | 372 kts | 193° |
| 2026-05-09 00:55 | -6.07396 | -35.29554 | 16526 ft | 375 kts | 186° |
| 2026-05-09 00:55 | -6.10007 | -35.29846 | 17325 ft | 380 kts | 184° |
| 2026-05-09 00:56 | -6.12656 | -35.30107 | 18108 ft | 385 kts | 184° |
| 2026-05-09 00:56 | -6.15341 | -35.30369 | 18782 ft | 390 kts | 184° |
| 2026-05-09 00:56 | -6.18061 | -35.30646 | 19396 ft | 396 kts | 185° |
| 2026-05-09 00:56 | -6.20828 | -35.30937 | 19988 ft | 403 kts | 185° |
| 2026-05-09 00:57 | -6.23631 | -35.31241 | 20573 ft | 409 kts | 186° |
| 2026-05-09 00:57 | -6.26485 | -35.31556 | 21171 ft | 414 kts | 186° |
| 2026-05-09 00:57 | -6.29361 | -35.31878 | 21797 ft | 418 kts | 186° |
| 2026-05-09 00:57 | -6.32270 | -35.32204 | 22377 ft | 423 kts | 186° |
| 2026-05-09 00:58 | -6.35215 | -35.32536 | 22931 ft | 429 kts | 186° |
| 2026-05-09 00:58 | -6.38201 | -35.32872 | 23467 ft | 434 kts | 186° |
| 2026-05-09 00:58 | -6.41219 | -35.33212 | 23929 ft | 439 kts | 186° |
| 2026-05-09 00:58 | -6.44260 | -35.33554 | 24426 ft | 441 kts | 187° |
| 2026-05-09 00:59 | -6.47321 | -35.33898 | 24940 ft | 443 kts | 187° |
| 2026-05-09 00:59 | -6.50392 | -35.34244 | 25435 ft | 445 kts | 187° |
| 2026-05-09 00:59 | -6.53480 | -35.34592 | 25909 ft | 448 kts | 187° |
| 2026-05-09 00:59 | -6.56589 | -35.34942 | 26374 ft | 451 kts | 187° |
| 2026-05-09 01:00 | -6.58831 | -35.35194 | 26699 ft | 453 kts | 187° |
| 2026-05-09 01:00 | -6.61976 | -35.35548 | 27138 ft | 456 kts | 187° |
| 2026-05-09 01:00 | -6.65139 | -35.35903 | 27578 ft | 459 kts | 187° |
| 2026-05-09 01:00 | -6.68322 | -35.36262 | 28009 ft | 462 kts | 187° |
| 2026-05-09 01:01 | -6.71525 | -35.36622 | 28441 ft | 464 kts | 187° |
| 2026-05-09 01:01 | -6.74743 | -35.36985 | 28845 ft | 467 kts | 187° |
| 2026-05-09 01:01 | -6.77980 | -35.37349 | 29241 ft | 470 kts | 187° |
| 2026-05-09 01:01 | -6.81232 | -35.37715 | 29629 ft | 472 kts | 187° |
| 2026-05-09 01:02 | -6.84508 | -35.38084 | 30008 ft | 475 kts | 187° |
| 2026-05-09 01:02 | -6.87805 | -35.38456 | 30345 ft | 477 kts | 187° |
| 2026-05-09 01:02 | -6.91109 | -35.38828 | 30656 ft | 479 kts | 187° |
| 2026-05-09 01:02 | -6.94427 | -35.39201 | 30957 ft | 482 kts | 187° |
| 2026-05-09 01:03 | -6.97768 | -35.39585 | 31256 ft | 484 kts | 188° |
| 2026-05-09 01:03 | -7.01118 | -35.39986 | 31555 ft | 486 kts | 188° |
| 2026-05-09 01:03 | -7.04435 | -35.40390 | 31893 ft | 487 kts | 188° |
| 2026-05-09 01:03 | -7.07799 | -35.40802 | 32345 ft | 486 kts | 188° |
| 2026-05-09 01:04 | -7.11146 | -35.41211 | 32835 ft | 484 kts | 188° |
| 2026-05-09 01:04 | -7.14482 | -35.41616 | 33320 ft | 482 kts | 188° |
| 2026-05-09 01:04 | -7.17805 | -35.42019 | 33774 ft | 481 kts | 188° |
| 2026-05-09 01:04 | -7.21127 | -35.42422 | 34186 ft | 481 kts | 188° |
| 2026-05-09 01:05 | -7.24446 | -35.42823 | 34582 ft | 479 kts | 188° |
| 2026-05-09 01:05 | -7.27744 | -35.43221 | 35006 ft | 476 kts | 189° |
| 2026-05-09 01:05 | -7.34288 | -35.44012 | 35836 ft | 472 kts | 189° |
| 2026-05-09 01:06 | -7.37543 | -35.44406 | 36206 ft | 470 kts | 189° |
| 2026-05-09 01:06 | -7.40786 | -35.44799 | 36589 ft | 468 kts | 189° |
| 2026-05-09 01:06 | -7.44015 | -35.45190 | 36994 ft | 466 kts | 189° |
| 2026-05-09 01:06 | -7.47227 | -35.45579 | 37372 ft | 464 kts | 189° |
| 2026-05-09 01:07 | -7.50430 | -35.45967 | 37718 ft | 463 kts | 189° |
| 2026-05-09 01:07 | -7.53590 | -35.46350 | 38061 ft | 462 kts | 189° |
| 2026-05-09 01:07 | -7.56777 | -35.46736 | 38414 ft | 460 kts | 189° |
| 2026-05-09 01:07 | -7.59942 | -35.47141 | 38734 ft | 457 kts | 193° |
| 2026-05-09 01:08 | -7.63010 | -35.47939 | 38959 ft | 454 kts | 202° |
| 2026-05-09 01:08 | -7.65898 | -35.49192 | 39191 ft | 450 kts | 210° |
| 2026-05-09 01:08 | -7.68537 | -35.50853 | 39435 ft | 446 kts | 218° |
| 2026-05-09 01:08 | -7.71033 | -35.52685 | 39763 ft | 442 kts | 219° |
| 2026-05-09 01:09 | -7.73501 | -35.54533 | 40029 ft | 441 kts | 219° |
| 2026-05-09 01:09 | -7.78466 | -35.58256 | 40033 ft | 445 kts | 219° |
| 2026-05-09 01:10 | -7.83428 | -35.61934 | 40030 ft | 441 kts | 219° |
| 2026-05-09 01:10 | -7.88363 | -35.65566 | 40036 ft | 437 kts | 219° |
| 2026-05-09 01:11 | -7.93266 | -35.69169 | 40038 ft | 435 kts | 219° |
| 2026-05-09 01:11 | -7.98150 | -35.72760 | 40041 ft | 434 kts | 219° |
| 2026-05-09 01:12 | -8.03029 | -35.76349 | 40049 ft | 434 kts | 219° |
| 2026-05-09 01:12 | -8.07913 | -35.79944 | 40048 ft | 435 kts | 219° |
| 2026-05-09 01:13 | -8.12822 | -35.83552 | 40047 ft | 439 kts | 218° |
| 2026-05-09 01:13 | -8.17760 | -35.87146 | 40044 ft | 441 kts | 219° |
| 2026-05-09 01:14 | -8.22736 | -35.90849 | 40054 ft | 442 kts | 219° |
| 2026-05-09 01:14 | -8.27675 | -35.94500 | 40056 ft | 444 kts | 219° |
| 2026-05-09 01:15 | -8.32663 | -35.98177 | 40053 ft | 444 kts | 219° |
| 2026-05-09 01:15 | -8.37652 | -36.01853 | 40059 ft | 443 kts | 219° |
| 2026-05-09 01:16 | -8.42627 | -36.05521 | 40060 ft | 442 kts | 219° |
| 2026-05-09 01:16 | -8.47590 | -36.09182 | 40064 ft | 441 kts | 219° |
| 2026-05-09 01:17 | -8.55003 | -36.14653 | 40060 ft | 439 kts | 219° |
| 2026-05-09 01:17 | -8.59926 | -36.18289 | 40074 ft | 438 kts | 219° |
| 2026-05-09 01:18 | -8.64844 | -36.21921 | 40066 ft | 437 kts | 219° |
| 2026-05-09 01:18 | -8.69751 | -36.25546 | 40070 ft | 437 kts | 219° |
| 2026-05-09 01:19 | -8.74655 | -36.29171 | 40071 ft | 437 kts | 219° |
| 2026-05-09 01:19 | -8.79559 | -36.32798 | 40071 ft | 437 kts | 219° |
| 2026-05-09 01:20 | -8.84466 | -36.36427 | 40072 ft | 437 kts | 219° |
| 2026-05-09 01:20 | -8.89386 | -36.40067 | 40070 ft | 438 kts | 219° |
| 2026-05-09 01:21 | -8.94275 | -36.43685 | 40071 ft | 439 kts | 219° |
| 2026-05-09 01:21 | -8.99210 | -36.47339 | 40069 ft | 440 kts | 219° |
| 2026-05-09 01:22 | -9.04151 | -36.50999 | 40066 ft | 440 kts | 219° |
| 2026-05-09 01:22 | -9.09094 | -36.54661 | 40066 ft | 441 kts | 219° |
| 2026-05-09 01:23 | -9.14046 | -36.58332 | 40058 ft | 441 kts | 219° |
| 2026-05-09 01:23 | -9.18992 | -36.61999 | 40057 ft | 441 kts | 219° |
| 2026-05-09 01:24 | -9.23935 | -36.65666 | 40058 ft | 440 kts | 219° |
| 2026-05-09 01:24 | -9.28871 | -36.69341 | 40059 ft | 440 kts | 219° |
| 2026-05-09 01:25 | -9.33789 | -36.73009 | 40063 ft | 439 kts | 219° |
| 2026-05-09 01:25 | -9.38703 | -36.76676 | 40050 ft | 439 kts | 219° |
| 2026-05-09 01:26 | -9.43652 | -36.80370 | 40061 ft | 447 kts | 219° |
| 2026-05-09 01:26 | -9.48697 | -36.84138 | 40053 ft | 454 kts | 219° |
| 2026-05-09 01:27 | -9.53781 | -36.87933 | 40046 ft | 454 kts | 219° |
| 2026-05-09 01:27 | -9.58875 | -36.91737 | 40044 ft | 455 kts | 219° |
| 2026-05-09 01:28 | -9.63962 | -36.95538 | 40043 ft | 454 kts | 219° |
| 2026-05-09 01:28 | -9.69047 | -36.99341 | 40044 ft | 454 kts | 219° |
| 2026-05-09 01:29 | -9.74077 | -37.03118 | 40038 ft | 452 kts | 220° |
| 2026-05-09 01:29 | -9.79054 | -37.06996 | 40038 ft | 451 kts | 220° |
| 2026-05-09 01:30 | -9.84009 | -37.10878 | 40041 ft | 450 kts | 220° |
| 2026-05-09 01:30 | -9.88966 | -37.14737 | 40042 ft | 449 kts | 220° |
| 2026-05-09 01:31 | -9.93982 | -37.18522 | 40039 ft | 449 kts | 219° |
| 2026-05-09 01:31 | -9.99016 | -37.22270 | 40043 ft | 449 kts | 219° |
| 2026-05-09 01:32 | -10.04042 | -37.26024 | 40040 ft | 448 kts | 219° |
| 2026-05-09 01:32 | -10.09053 | -37.29781 | 40042 ft | 448 kts | 219° |
| 2026-05-09 01:33 | -10.14057 | -37.33539 | 40043 ft | 447 kts | 219° |
| 2026-05-09 01:33 | -10.19057 | -37.37295 | 40041 ft | 447 kts | 219° |
| 2026-05-09 01:34 | -10.24053 | -37.41049 | 40053 ft | 446 kts | 219° |
| 2026-05-09 01:34 | -10.29042 | -37.44799 | 40043 ft | 446 kts | 219° |
| 2026-05-09 01:35 | -10.33993 | -37.48522 | 40042 ft | 445 kts | 219° |
| 2026-05-09 01:35 | -10.38969 | -37.52266 | 40041 ft | 445 kts | 219° |
| 2026-05-09 01:36 | -10.43938 | -37.56006 | 40048 ft | 444 kts | 219° |
| 2026-05-09 01:36 | -10.48906 | -37.59747 | 40050 ft | 444 kts | 219° |
| 2026-05-09 01:37 | -10.53865 | -37.63485 | 40050 ft | 444 kts | 219° |
| 2026-05-09 01:37 | -10.58817 | -37.67228 | 40049 ft | 443 kts | 219° |
| 2026-05-09 01:38 | -10.63761 | -37.70969 | 40050 ft | 443 kts | 219° |
| 2026-05-09 01:38 | -10.68707 | -37.74712 | 40049 ft | 443 kts | 219° |
| 2026-05-09 01:39 | -10.73643 | -37.78449 | 40053 ft | 442 kts | 219° |
| 2026-05-09 01:39 | -10.78585 | -37.82191 | 40051 ft | 443 kts | 219° |
| 2026-05-09 01:40 | -10.83518 | -37.85929 | 40051 ft | 442 kts | 219° |
| 2026-05-09 01:40 | -10.88457 | -37.89673 | 40046 ft | 443 kts | 219° |
| 2026-05-09 01:41 | -10.93389 | -37.93413 | 40055 ft | 442 kts | 219° |
| 2026-05-09 01:41 | -10.98325 | -37.97157 | 40055 ft | 442 kts | 219° |
| 2026-05-09 01:42 | -11.03227 | -38.00878 | 40052 ft | 442 kts | 219° |
| 2026-05-09 01:42 | -11.07359 | -38.04015 | 40053 ft | 442 kts | 219° |
| 2026-05-09 01:43 | -11.09839 | -38.05899 | 39568 ft | 445 kts | 219° |
| 2026-05-09 01:43 | -11.13107 | -38.08381 | 38747 ft | 442 kts | 219° |
| 2026-05-09 01:43 | -11.14777 | -38.09650 | 38220 ft | 442 kts | 219° |
| 2026-05-09 01:43 | -11.18041 | -38.12130 | 37207 ft | 442 kts | 219° |
| 2026-05-09 01:44 | -11.19705 | -38.13395 | 36680 ft | 442 kts | 219° |
| 2026-05-09 01:44 | -11.22169 | -38.15269 | 35934 ft | 442 kts | 219° |
| 2026-05-09 01:44 | -11.24645 | -38.17154 | 35078 ft | 446 kts | 219° |
| 2026-05-09 01:44 | -11.27134 | -38.19049 | 34369 ft | 446 kts | 219° |
| 2026-05-09 01:45 | -11.29617 | -38.20937 | 33656 ft | 445 kts | 219° |
| 2026-05-09 01:45 | -11.32093 | -38.22821 | 33017 ft | 442 kts | 218° |
| 2026-05-09 01:45 | -11.34531 | -38.24674 | 32398 ft | 438 kts | 218° |
| 2026-05-09 01:45 | -11.36960 | -38.26523 | 31793 ft | 435 kts | 218° |
| 2026-05-09 01:46 | -11.39380 | -38.28366 | 31209 ft | 432 kts | 218° |
| 2026-05-09 01:46 | -11.41748 | -38.30171 | 30609 ft | 430 kts | 217° |
| 2026-05-09 01:46 | -11.44135 | -38.31990 | 30000 ft | 428 kts | 217° |
| 2026-05-09 01:46 | -11.46509 | -38.33798 | 29330 ft | 424 kts | 217° |
| 2026-05-09 01:47 | -11.48862 | -38.35591 | 28699 ft | 420 kts | 217° |
| 2026-05-09 01:47 | -11.51195 | -38.37377 | 28043 ft | 417 kts | 217° |
| 2026-05-09 01:47 | -11.53497 | -38.39147 | 27432 ft | 413 kts | 217° |
| 2026-05-09 01:47 | -11.55781 | -38.40906 | 26828 ft | 409 kts | 217° |
| 2026-05-09 01:48 | -11.58042 | -38.42647 | 26246 ft | 406 kts | 217° |
| 2026-05-09 01:48 | -11.60286 | -38.44374 | 25663 ft | 402 kts | 216° |
| 2026-05-09 01:48 | -11.62516 | -38.46092 | 25064 ft | 400 kts | 216° |
| 2026-05-09 01:48 | -11.64727 | -38.47793 | 24481 ft | 398 kts | 216° |
| 2026-05-09 01:49 | -11.66931 | -38.49489 | 23890 ft | 396 kts | 216° |
| 2026-05-09 01:49 | -11.69204 | -38.51046 | 23206 ft | 393 kts | 205° |
| 2026-05-09 01:49 | -11.71778 | -38.51882 | 22630 ft | 387 kts | 188° |
| 2026-05-09 01:49 | -11.74439 | -38.52138 | 22096 ft | 381 kts | 184° |
| 2026-05-09 01:50 | -11.77069 | -38.52289 | 21552 ft | 378 kts | 183° |
| 2026-05-09 01:50 | -11.79692 | -38.52419 | 21028 ft | 376 kts | 183° |
| 2026-05-09 01:50 | -11.82307 | -38.52555 | 20510 ft | 376 kts | 183° |
| 2026-05-09 01:50 | -11.84916 | -38.52701 | 19986 ft | 376 kts | 184° |
| 2026-05-09 01:51 | -11.87535 | -38.52858 | 19449 ft | 376 kts | 184° |
| 2026-05-09 01:51 | -11.90146 | -38.53021 | 18919 ft | 377 kts | 184° |
| 2026-05-09 01:51 | -11.92764 | -38.53189 | 18388 ft | 377 kts | 184° |
| 2026-05-09 01:51 | -11.95378 | -38.53358 | 17796 ft | 375 kts | 184° |
| 2026-05-09 01:52 | -11.97933 | -38.53525 | 17259 ft | 370 kts | 184° |
| 2026-05-09 01:52 | -12.00489 | -38.53691 | 16736 ft | 366 kts | 183° |
| 2026-05-09 01:52 | -12.03016 | -38.53856 | 16225 ft | 362 kts | 183° |
| 2026-05-09 01:52 | -12.05545 | -38.54022 | 15720 ft | 358 kts | 182° |
| 2026-05-09 01:53 | -12.07987 | -38.54180 | 15230 ft | 354 kts | 182° |
| 2026-05-09 01:53 | -12.10435 | -38.54340 | 14740 ft | 351 kts | 182° |
| 2026-05-09 01:53 | -12.12864 | -38.54498 | 14241 ft | 349 kts | 181° |
| 2026-05-09 01:53 | -12.15274 | -38.54655 | 13736 ft | 346 kts | 181° |
| 2026-05-09 01:54 | -12.17671 | -38.54810 | 13211 ft | 344 kts | 181° |
| 2026-05-09 01:54 | -12.20035 | -38.54965 | 12845 ft | 336 kts | 181° |
| 2026-05-09 01:54 | -12.22363 | -38.55118 | 12534 ft | 336 kts | 181° |
| 2026-05-09 01:54 | -12.24702 | -38.55270 | 12224 ft | 337 kts | 181° |
| 2026-05-09 01:55 | -12.27049 | -38.55424 | 11918 ft | 339 kts | 181° |
| 2026-05-09 01:55 | -12.29409 | -38.55579 | 11602 ft | 340 kts | 181° |
| 2026-05-09 01:55 | -12.31763 | -38.55734 | 11301 ft | 339 kts | 181° |
| 2026-05-09 01:55 | -12.34121 | -38.55888 | 10985 ft | 339 kts | 181° |
| 2026-05-09 01:56 | -12.36469 | -38.56042 | 10675 ft | 336 kts | 181° |
| 2026-05-09 01:56 | -12.38766 | -38.56194 | 10367 ft | 327 kts | 181° |
| 2026-05-09 01:56 | -12.41013 | -38.56343 | 10072 ft | 319 kts | 180° |
| 2026-05-09 01:56 | -12.43177 | -38.56487 | 9996 ft | 303 kts | 180° |
| 2026-05-09 01:57 | -12.45242 | -38.56625 | 9661 ft | 298 kts | 180° |
| 2026-05-09 01:57 | -12.47315 | -38.56759 | 9261 ft | 297 kts | 180° |
| 2026-05-09 01:57 | -12.49357 | -38.56892 | 8942 ft | 290 kts | 180° |
| 2026-05-09 01:57 | -12.51351 | -38.57024 | 8662 ft | 284 kts | 180° |
| 2026-05-09 01:58 | -12.53303 | -38.57152 | 8402 ft | 278 kts | 180° |
| 2026-05-09 01:58 | -12.55232 | -38.57279 | 8149 ft | 278 kts | 180° |
| 2026-05-09 01:58 | -12.57160 | -38.57404 | 7900 ft | 277 kts | 180° |
| 2026-05-09 01:58 | -12.59079 | -38.57529 | 7649 ft | 276 kts | 180° |
| 2026-05-09 01:59 | -12.61000 | -38.57654 | 7359 ft | 277 kts | 180° |
| 2026-05-09 01:59 | -12.62915 | -38.57780 | 7101 ft | 275 kts | 180° |
| 2026-05-09 01:59 | -12.64817 | -38.57904 | 6846 ft | 273 kts | 180° |
| 2026-05-09 01:59 | -12.66689 | -38.57907 | 6558 ft | 266 kts | 166° |
| 2026-05-09 02:00 | -12.68439 | -38.57397 | 6291 ft | 258 kts | 159° |
| 2026-05-09 02:00 | -12.70145 | -38.56830 | 6036 ft | 256 kts | 159° |
| 2026-05-09 02:00 | -12.71845 | -38.56274 | 5786 ft | 258 kts | 160° |
| 2026-05-09 02:00 | -12.73556 | -38.55730 | 5551 ft | 257 kts | 160° |
| 2026-05-09 02:01 | -12.75236 | -38.55205 | 5315 ft | 255 kts | 160° |
| 2026-05-09 02:01 | -12.76935 | -38.54684 | 5078 ft | 254 kts | 161° |
| 2026-05-09 02:01 | -12.78649 | -38.54165 | 4835 ft | 253 kts | 161° |
| 2026-05-09 02:01 | -12.80310 | -38.53664 | 4600 ft | 252 kts | 161° |
| 2026-05-09 02:02 | -12.81987 | -38.53160 | 4358 ft | 251 kts | 161° |
| 2026-05-09 02:02 | -12.83662 | -38.52657 | 4126 ft | 251 kts | 161° |
| 2026-05-09 02:02 | -12.85343 | -38.52184 | 3890 ft | 250 kts | 165° |
| 2026-05-09 02:02 | -12.87030 | -38.51834 | 3678 ft | 244 kts | 166° |
| 2026-05-09 02:03 | -12.88641 | -38.51518 | 3580 ft | 227 kts | 166° |
| 2026-05-09 02:03 | -12.90144 | -38.51219 | 3462 ft | 212 kts | 165° |
| 2026-05-09 02:03 | -12.91539 | -38.50938 | 3351 ft | 198 kts | 165° |
| 2026-05-09 02:03 | -12.92835 | -38.50632 | 3227 ft | 183 kts | 153° |
| 2026-05-09 02:04 | -12.93762 | -38.49807 | 2837 ft | 180 kts | 114° |
| 2026-05-09 02:04 | -12.94084 | -38.48613 | 2589 ft | 174 kts | 86° |
| 2026-05-09 02:04 | -12.93877 | -38.47437 | 2421 ft | 164 kts | 80° |
| 2026-05-09 02:04 | -12.93668 | -38.46325 | 2245 ft | 154 kts | 80° |
| 2026-05-09 02:05 | -12.93462 | -38.45267 | 2128 ft | 153 kts | 79° |
| 2026-05-09 02:05 | -12.93249 | -38.44202 | 2046 ft | 149 kts | 79° |
| 2026-05-09 02:05 | -12.93049 | -38.43203 | 1877 ft | 136 kts | 79° |
| 2026-05-09 02:05 | -12.92865 | -38.42290 | 1684 ft | 126 kts | 80° |
| 2026-05-09 02:06 | -12.92692 | -38.41420 | 1546 ft | 124 kts | 79° |
| 2026-05-09 02:06 | -12.92519 | -38.40552 | 1374 ft | 124 kts | 80° |
| 2026-05-09 02:06 | -12.92342 | -38.39674 | 1219 ft | 127 kts | 79° |
| 2026-05-09 02:07 | -12.91989 | -38.37908 | 900 ft | 128 kts | 79° |
| 2026-05-09 02:07 | -12.91808 | -38.37011 | 740 ft | 129 kts | 79° |
| 2026-05-09 02:07 | -12.91628 | -38.36113 | 582 ft | 128 kts | 79° |
| 2026-05-09 02:07 | -12.91451 | -38.35228 | 418 ft | 126 kts | 78° |
| 2026-05-09 02:08 | -12.91275 | -38.34351 | 258 ft | 125 kts | 78° |
| 2026-05-09 02:08 | -12.91101 | -38.33482 | 84 ft | 123 kts | 79° |
| 2026-05-09 02:08 | -12.90947 | -38.32708 | 49 ft | 92 kts | 78° |
| 2026-05-09 02:08 | -12.90858 | -38.32263 | 51 ft | 33 kts | 78° |
| 2026-05-09 02:09 | -12.90913 | -38.32216 | 50 ft | 11 kts | 201° |
| 2026-05-09 02:09 | -12.90976 | -38.32262 | 48 ft | 11 kts | 217° |
| 2026-05-09 02:09 | -12.91026 | -38.32316 | 50 ft | 11 kts | 245° |
| 2026-05-09 02:09 | -12.91044 | -38.32389 | 48 ft | 11 kts | 258° |
| 2026-05-09 02:10 | -12.91059 | -38.32462 | 50 ft | 10 kts | 258° |
| 2026-05-09 02:10 | -12.91090 | -38.32521 | 51 ft | 10 kts | 204° |
| 2026-05-09 02:10 | -12.91145 | -38.32560 | 48 ft | 10 kts | 250° |
| 2026-05-09 02:10 | -12.91153 | -38.32617 | 50 ft | 6 kts | 253° |
| 2026-05-09 02:11 | -12.91180 | -38.32638 | 50 ft | 5 kts | 185° |
| 2026-05-09 02:11 | -12.91211 | -38.32633 | 48 ft | 4 kts | 168° |
| 2026-05-09 02:11 | -12.91239 | -38.32627 | 50 ft | 3 kts | 168° |
| 2026-05-09 02:11 | -12.91252 | -38.32624 | 50 ft | 0 kts | 167° |